createdAt,value
2023-02-24T00:00:37.929Z,23.23
2023-02-24T00:03:11.159Z,20.60
2023-02-24T00:05:44.417Z,21.93
2023-02-24T00:08:12.690Z,21.93
2023-02-24T00:10:41.589Z,21.90
2023-02-24T00:13:12.193Z,21.13
2023-02-24T00:15:41.148Z,20.83
2023-02-24T00:18:10.489Z,23.83
2023-02-24T00:20:40.119Z,24.67
2023-02-24T00:23:11.591Z,25.27
2023-02-24T00:25:39.789Z,24.73
2023-02-24T00:28:08.893Z,25.40
2023-02-24T00:30:37.178Z,27.17
2023-02-24T00:33:06.618Z,26.43
2023-02-24T00:35:36.190Z,25.03
2023-02-24T00:38:05.792Z,28.27
2023-02-24T00:40:37.144Z,28.80
2023-02-24T00:43:05.748Z,26.63
2023-02-24T00:45:39.070Z,31.30
2023-02-24T00:48:10.702Z,28.63
2023-02-24T00:50:40.040Z,30.50
2023-02-24T00:53:11.741Z,28.80
2023-02-24T00:55:39.988Z,28.73
2023-02-24T00:58:08.260Z,33.07
2023-02-24T01:00:37.833Z,33.70
2023-02-24T01:03:07.350Z,32.73
2023-02-24T01:05:38.285Z,35.47
2023-02-24T01:08:08.841Z,40.13
2023-02-24T01:10:39.238Z,39.10
2023-02-24T01:13:06.474Z,42.63
2023-02-24T01:15:36.895Z,38.23
2023-02-24T01:18:05.583Z,41.87
2023-02-24T01:20:38.471Z,42.17
2023-02-24T01:23:07.925Z,39.33
2023-02-24T01:25:40.066Z,38.37
2023-02-24T01:28:11.154Z,45.07
2023-02-24T01:30:39.554Z,42.53
2023-02-24T01:33:08.195Z,44.03
2023-02-24T01:35:37.600Z,43.07
2023-02-24T01:38:05.873Z,46.70
2023-02-24T01:40:35.668Z,43.17
2023-02-24T01:43:08.901Z,45.27
2023-02-24T01:45:40.025Z,52.27
2023-02-24T01:48:10.967Z,42.80
2023-02-24T01:50:39.907Z,42.23
2023-02-24T01:53:11.062Z,41.33
2023-02-24T01:55:46.610Z,45.93
2023-02-24T01:58:23.853Z,41.63
2023-02-24T02:00:52.531Z,45.13
2023-02-24T02:03:27.486Z,43.53
2023-02-24T02:06:01.036Z,41.30
2023-02-24T02:08:33.285Z,44.93
2023-02-24T02:11:07.037Z,41.50
2023-02-24T02:13:38.306Z,42.20
2023-02-24T02:16:34.907Z,44.03
2023-02-24T02:19:21.083Z,49.77
2023-02-24T02:22:08.101Z,43.07
2023-02-24T02:24:48.433Z,41.93
2023-02-24T02:27:46.377Z,44.97
2023-02-24T02:30:50.044Z,48.43
2023-02-24T02:33:57.208Z,48.90
2023-02-24T02:36:38.744Z,47.67
2023-02-24T02:39:14.850Z,48.60
2023-02-24T02:41:51.416Z,45.47
2023-02-24T02:44:23.735Z,47.60
2023-02-24T02:46:58.346Z,49.63
2023-02-24T02:49:33.035Z,41.87
2023-02-24T02:52:15.481Z,45.97
2023-02-24T02:54:50.983Z,47.40
2023-02-24T02:57:23.423Z,49.30
2023-02-24T02:59:58.064Z,48.30
2023-02-24T03:02:30.578Z,50.43
2023-02-24T03:05:03.939Z,48.60
2023-02-24T03:07:40.433Z,47.80
2023-02-24T03:10:17.652Z,50.10
2023-02-24T03:12:47.217Z,48.07
2023-02-24T03:15:21.035Z,49.27
2023-02-24T03:17:56.601Z,50.43
2023-02-24T03:20:32.848Z,47.67
2023-02-24T03:23:11.999Z,52.50
2023-02-24T03:25:58.681Z,45.27
2023-02-24T03:28:40.712Z,44.67
2023-02-24T03:31:14.381Z,44.27
2023-02-24T03:33:47.790Z,46.33
2023-02-24T03:36:16.132Z,48.80
2023-02-24T03:38:49.331Z,47.57
2023-02-24T03:41:19.555Z,51.80
2023-02-24T03:43:51.119Z,48.10
2023-02-24T03:46:19.670Z,51.00
2023-02-24T03:48:53.999Z,50.67
2023-02-24T03:51:24.338Z,48.30
2023-02-24T03:54:09.005Z,52.27
2023-02-24T03:56:47.822Z,50.97
2023-02-24T03:59:27.737Z,47.07
2023-02-24T04:02:02.417Z,54.00
2023-02-24T04:04:43.305Z,49.97
2023-02-24T04:07:31.321Z,50.13
2023-02-24T04:10:09.467Z,44.93
2023-02-24T04:12:46.991Z,49.63
2023-02-24T04:15:21.762Z,44.30
2023-02-24T04:17:53.313Z,43.80
2023-02-24T04:20:29.742Z,51.10
2023-02-24T04:23:08.667Z,49.27
2023-02-24T04:25:41.895Z,49.07
2023-02-24T04:28:12.931Z,49.60
2023-02-24T04:30:49.311Z,52.87
2023-02-24T04:33:19.233Z,47.00
2023-02-24T04:35:50.526Z,45.97
2023-02-24T04:38:20.273Z,46.40
2023-02-24T04:40:51.443Z,40.93
2023-02-24T04:43:19.994Z,44.07
2023-02-24T04:45:48.212Z,47.30
2023-02-24T04:48:16.369Z,46.20
2023-02-24T04:50:45.735Z,44.57
2023-02-24T04:53:18.027Z,43.40
2023-02-24T04:55:48.861Z,44.57
2023-02-24T04:58:21.239Z,45.97
2023-02-24T05:00:52.801Z,45.27
2023-02-24T05:03:22.420Z,44.90
2023-02-24T05:05:52.995Z,45.90
2023-02-24T05:08:21.375Z,41.97
2023-02-24T05:10:50.649Z,41.20
2023-02-24T05:13:25.379Z,44.63
2023-02-24T05:15:56.064Z,42.57
2023-02-24T05:18:30.245Z,40.00
2023-02-24T05:21:16.437Z,46.20
2023-02-24T05:23:47.565Z,42.00
2023-02-24T05:26:18.124Z,42.97
2023-02-24T05:28:49.849Z,40.83
2023-02-24T05:31:20.658Z,42.40
2023-02-24T05:33:54.583Z,42.37
2023-02-24T05:36:23.425Z,43.13
2023-02-24T05:38:57.943Z,43.90
2023-02-24T05:41:32.582Z,42.27
2023-02-24T05:44:04.862Z,41.13
2023-02-24T05:46:35.299Z,48.70
2023-02-24T05:49:08.779Z,45.67
2023-02-24T05:51:43.325Z,47.40
2023-02-24T05:54:14.893Z,45.13
2023-02-24T05:56:43.814Z,50.03
2023-02-24T05:59:18.243Z,45.90
2023-02-24T06:01:46.718Z,41.77
2023-02-24T06:04:28.002Z,44.23
2023-02-24T06:06:56.657Z,43.43
2023-02-24T06:09:25.202Z,43.73
2023-02-24T06:11:54.281Z,45.97
2023-02-24T06:14:23.824Z,47.90
2023-02-24T06:16:52.070Z,45.43
2023-02-24T06:19:23.225Z,47.10
2023-02-24T06:21:52.615Z,45.10
2023-02-24T06:24:21.003Z,42.10
2023-02-24T06:26:50.161Z,40.73
2023-02-24T06:29:19.258Z,49.77
2023-02-24T06:31:50.227Z,44.93
2023-02-24T06:34:19.235Z,48.53
2023-02-24T06:36:49.139Z,46.40
2023-02-24T06:39:17.627Z,47.20
2023-02-24T06:41:46.576Z,45.67
2023-02-24T06:44:14.832Z,49.23
2023-02-24T06:46:43.343Z,44.13
2023-02-24T06:49:13.188Z,43.70
2023-02-24T06:51:43.421Z,44.00
2023-02-24T06:54:12.635Z,48.50
2023-02-24T06:56:41.767Z,43.73
2023-02-24T06:59:12.740Z,45.57
2023-02-24T07:01:45.297Z,50.03
2023-02-24T07:04:20.838Z,49.57
2023-02-24T07:06:52.480Z,47.23
2023-02-24T07:09:22.453Z,45.03
2023-02-24T07:11:52.362Z,47.80
2023-02-24T07:14:22.221Z,51.73
2023-02-24T07:16:54.652Z,48.67
2023-02-24T07:19:26.549Z,45.90
2023-02-24T07:22:00.051Z,45.27
2023-02-24T07:24:35.930Z,49.33
2023-02-24T07:27:09.445Z,49.67
2023-02-24T07:29:38.882Z,47.03
2023-02-24T07:32:09.756Z,47.43
2023-02-24T07:34:40.951Z,48.87
2023-02-24T07:37:10.297Z,46.57
2023-02-24T07:39:40.189Z,44.73
2023-02-24T07:42:10.894Z,49.87
2023-02-24T07:44:55.214Z,48.60
2023-02-24T07:47:25.166Z,46.17
2023-02-24T07:49:55.424Z,48.40
2023-02-24T07:52:23.678Z,46.53
2023-02-24T07:54:51.958Z,46.57
2023-02-24T07:57:20.633Z,48.60
2023-02-24T07:59:48.974Z,43.43
2023-02-24T08:02:18.326Z,45.97
2023-02-24T08:04:50.476Z,47.67
2023-02-24T08:07:24.751Z,46.73
2023-02-24T08:10:24.202Z,49.23
2023-02-24T08:12:55.580Z,46.70
2023-02-24T08:15:25.382Z,47.63
2023-02-24T08:17:59.496Z,46.20
2023-02-24T08:20:36.228Z,47.43
2023-02-24T08:23:08.771Z,43.87
2023-02-24T08:25:37.018Z,44.77
2023-02-24T08:28:09.318Z,41.73
2023-02-24T08:30:40.908Z,43.40
2023-02-24T08:33:11.632Z,43.77
2023-02-24T08:35:44.710Z,43.97
2023-02-24T08:38:18.533Z,42.37
2023-02-24T08:40:51.728Z,42.63
2023-02-24T08:43:32.636Z,43.47
2023-02-24T08:46:04.816Z,43.17
2023-02-24T08:48:39.157Z,42.70
2023-02-24T08:51:12.284Z,42.83
2023-02-24T08:53:41.971Z,42.57
2023-02-24T08:56:12.956Z,44.80
2023-02-24T08:58:47.175Z,38.70
2023-02-24T09:01:24.000Z,42.83
2023-02-24T09:03:55.320Z,48.43
2023-02-24T09:06:27.601Z,43.30
2023-02-24T09:09:11.935Z,41.47
2023-02-24T09:11:44.091Z,41.53
2023-02-24T09:14:32.213Z,40.57
2023-02-24T09:17:04.044Z,40.37
2023-02-24T09:20:06.362Z,38.57
2023-02-24T09:22:55.826Z,40.00
2023-02-24T09:25:40.679Z,40.80
2023-02-24T09:28:17.276Z,39.47
2023-02-24T09:30:54.208Z,39.73
2023-02-24T09:33:25.738Z,39.40
2023-02-24T09:36:03.069Z,40.60
2023-02-24T09:38:49.389Z,40.63
2023-02-24T09:41:33.195Z,38.63
2023-02-24T09:44:07.421Z,39.20
2023-02-24T09:46:53.978Z,39.47
2023-02-24T09:49:27.057Z,41.07
2023-02-24T09:52:00.478Z,49.60
2023-02-24T09:54:35.366Z,38.80
2023-02-24T09:57:16.682Z,38.20
2023-02-24T10:00:01.340Z,35.80
2023-02-24T10:02:44.413Z,34.80
2023-02-24T10:05:26.600Z,35.80
2023-02-24T10:07:57.066Z,35.13
2023-02-24T10:10:29.171Z,36.33
2023-02-24T10:13:13.224Z,38.63
2023-02-24T10:15:59.201Z,33.13
2023-02-24T10:18:32.083Z,37.47
2023-02-24T10:21:06.937Z,38.20
2023-02-24T10:23:56.372Z,31.23
2023-02-24T10:26:32.905Z,34.77
2023-02-24T10:29:22.753Z,30.77
2023-02-24T10:31:57.877Z,37.03
2023-02-24T10:34:31.892Z,33.53
2023-02-24T10:37:07.747Z,36.13
2023-02-24T10:39:36.735Z,35.17
2023-02-24T10:42:19.703Z,36.77
2023-02-24T10:45:03.198Z,37.13
2023-02-24T10:47:32.870Z,34.87
2023-02-24T10:50:03.545Z,33.47
2023-02-24T10:52:37.095Z,34.17
2023-02-24T10:55:24.626Z,34.83
2023-02-24T10:58:00.588Z,32.87
2023-02-24T11:01:01.155Z,36.23
2023-02-24T11:03:42.095Z,34.97
2023-02-24T11:06:42.185Z,35.73
2023-02-24T11:09:32.051Z,35.87
2023-02-24T11:12:23.045Z,30.57
2023-02-24T11:15:12.292Z,30.57
2023-02-24T11:17:52.082Z,32.20
2023-02-24T11:20:46.188Z,31.80
2023-02-24T11:23:19.794Z,27.90
2023-02-24T11:25:51.182Z,29.43
2023-02-24T11:28:44.793Z,30.83
2023-02-24T11:31:25.389Z,29.83
2023-02-24T11:34:05.297Z,28.57
2023-02-24T11:36:43.521Z,25.40
2023-02-24T11:39:31.689Z,27.97
2023-02-24T11:42:05.296Z,26.57
2023-02-24T11:44:41.292Z,26.10
2023-02-24T11:47:16.245Z,25.50
2023-02-24T11:49:52.578Z,24.13
2023-02-24T11:52:28.373Z,29.33
2023-02-24T11:55:03.836Z,31.10
2023-02-24T11:57:40.393Z,28.40
2023-02-24T12:00:20.155Z,27.17
2023-02-24T12:02:54.905Z,27.83
2023-02-24T12:05:28.343Z,25.80
2023-02-24T12:08:02.878Z,30.07
2023-02-24T12:10:33.490Z,28.97
2023-02-24T12:13:08.538Z,30.20
2023-02-24T12:15:41.855Z,25.83
2023-02-24T12:18:17.723Z,28.20
2023-02-24T12:20:51.738Z,27.93
2023-02-24T12:23:26.965Z,32.20
2023-02-24T12:26:17.660Z,29.17
2023-02-24T12:29:09.701Z,28.43
2023-02-24T12:31:45.643Z,32.23
2023-02-24T12:34:21.317Z,31.70
2023-02-24T12:37:07.595Z,35.17
2023-02-24T12:39:43.634Z,34.37
2023-02-24T12:42:23.328Z,32.90
2023-02-24T12:44:59.009Z,37.17
2023-02-24T12:47:38.276Z,34.17
2023-02-24T12:50:32.031Z,35.20
2023-02-24T12:53:09.422Z,39.57
2023-02-24T12:55:55.349Z,36.20
2023-02-24T12:58:27.578Z,37.27
2023-02-24T13:01:07.208Z,36.30
2023-02-24T13:04:05.246Z,36.00
2023-02-24T13:06:47.117Z,42.80
2023-02-24T13:09:42.022Z,37.27
2023-02-24T13:12:18.141Z,40.60
2023-02-24T13:15:01.655Z,36.97
2023-02-24T13:17:30.037Z,37.30
2023-02-24T13:19:58.545Z,37.77
2023-02-24T13:22:29.918Z,37.40
2023-02-24T13:25:04.477Z,36.37
2023-02-24T13:27:36.071Z,36.10
2023-02-24T13:30:24.534Z,36.27
